createdAt,value
2022-08-05T00:02:26.617Z,101551.88
2022-08-05T00:06:33.209Z,101538.34
2022-08-05T00:10:35.363Z,101538.56
2022-08-05T00:14:37.171Z,101547.72
2022-08-05T00:18:40.021Z,101554.38
2022-08-05T00:22:47.138Z,101553.09
2022-08-05T00:27:04.746Z,101553.50
2022-08-05T00:31:12.346Z,101556.81
2022-08-05T00:35:13.989Z,101564.50
2022-08-05T00:39:15.781Z,101556.38
2022-08-05T00:43:18.368Z,101559.72
2022-08-05T00:47:20.204Z,101558.84
2022-08-05T00:51:50.775Z,101560.06
2022-08-05T00:55:45.055Z,101568.16
2022-08-05T00:59:48.635Z,101561.47
2022-08-05T01:03:50.438Z,101563.75
2022-08-05T01:08:42.651Z,101562.09
2022-08-05T01:12:20.236Z,101561.00
2022-08-05T01:16:29.155Z,101563.72
2022-08-05T01:20:53.852Z,101577.06
2022-08-05T01:25:13.642Z,101567.47
2022-08-05T01:29:30.685Z,101574.91
2022-08-05T01:33:38.902Z,101577.84
2022-08-05T01:37:50.518Z,101584.91
2022-08-05T01:41:57.852Z,101604.50
2022-08-05T01:46:07.467Z,101607.00
2022-08-05T01:50:28.587Z,101607.38
2022-08-05T01:54:56.682Z,101599.28
2022-08-05T01:59:00.650Z,101595.56
2022-08-05T02:03:28.923Z,101585.75
2022-08-05T02:07:34.937Z,101584.28
2022-08-05T02:11:52.642Z,101583.19
2022-08-05T02:16:16.683Z,101575.69
2022-08-05T02:20:26.630Z,101573.59
2022-08-05T02:24:34.089Z,101576.03
2022-08-05T02:28:41.761Z,101577.84
2022-08-05T02:32:51.135Z,101559.91
2022-08-05T02:36:55.826Z,101561.78
2022-08-05T02:40:58.537Z,101555.50
2022-08-05T02:45:01.767Z,101557.97
2022-08-05T02:49:05.858Z,101553.97
2022-08-05T02:53:18.738Z,101548.31
2022-08-05T02:58:11.047Z,101555.13
2022-08-05T03:01:45.058Z,101550.16
2022-08-05T03:06:56.473Z,101557.41
2022-08-05T03:10:10.752Z,101563.66
2022-08-05T03:14:14.937Z,101561.97
2022-08-05T03:18:17.422Z,101571.13
2022-08-05T03:22:32.136Z,101571.47
2022-08-05T03:26:34.853Z,101574.16
2022-08-05T03:30:38.319Z,101568.97
2022-08-05T03:34:50.606Z,101573.94
2022-08-05T03:38:53.465Z,101573.28
2022-08-05T03:42:55.355Z,101583.00
2022-08-05T03:46:57.125Z,101581.72
2022-08-05T03:52:48.980Z,101587.06
2022-08-05T03:56:05.608Z,101578.28
2022-08-05T04:00:01.821Z,101583.69
2022-08-05T04:04:10.295Z,101600.31
2022-08-05T04:08:14.682Z,101595.09
2022-08-05T04:12:33.154Z,101586.53
2022-08-05T04:16:35.961Z,101576.09
2022-08-05T04:20:37.650Z,101579.84
2022-08-05T04:24:53.020Z,101578.19
2022-08-05T04:28:54.803Z,101580.88
2022-08-05T04:32:56.512Z,101584.63
2022-08-05T04:36:58.110Z,101587.69
2022-08-05T04:40:59.721Z,101585.38
2022-08-05T04:45:05.620Z,101586.78
2022-08-05T04:49:12.186Z,101591.91
2022-08-05T04:53:18.402Z,101581.69
2022-08-05T04:57:20.068Z,101586.25
2022-08-05T05:02:05.511Z,101576.47
2022-08-05T05:06:40.326Z,101577.13
2022-08-05T05:10:06.669Z,101579.72
2022-08-05T05:14:08.598Z,101589.94
2022-08-05T05:18:14.192Z,101583.75
2022-08-05T05:22:22.967Z,101592.59
2022-08-05T05:26:28.335Z,101592.47
2022-08-05T05:30:34.793Z,101593.81
2022-08-05T05:34:36.378Z,101591.44
2022-08-05T05:38:39.433Z,101594.47
2022-08-05T05:42:47.079Z,101608.66
2022-08-05T05:46:48.896Z,101597.91
2022-08-05T05:50:52.934Z,101604.00
2022-08-05T05:54:54.574Z,101595.50
2022-08-05T05:58:56.201Z,101607.22
2022-08-05T06:02:57.872Z,101615.16
2022-08-05T06:07:01.643Z,101626.84
2022-08-05T06:11:04.058Z,101623.09
2022-08-05T06:15:07.986Z,101625.38
2022-08-05T06:19:09.828Z,101629.56
2022-08-05T06:23:14.139Z,101629.78
2022-08-05T06:27:17.312Z,101633.56
2022-08-05T06:31:38.545Z,101639.47
2022-08-05T06:36:04.215Z,101642.84
2022-08-05T06:40:05.883Z,101642.25
2022-08-05T06:44:07.474Z,101648.28
2022-08-05T06:48:36.309Z,101647.06
2022-08-05T06:52:37.994Z,101645.41
2022-08-05T06:56:39.972Z,101638.31
2022-08-05T07:00:41.692Z,101652.69
2022-08-05T07:04:43.614Z,101656.28
2022-08-05T07:08:53.163Z,101657.81
2022-08-05T07:13:15.220Z,101660.34
2022-08-05T07:18:08.253Z,101662.31
2022-08-05T07:21:59.801Z,101675.09
2022-08-05T07:26:00.849Z,101680.78
2022-08-05T07:30:28.478Z,101683.75
2022-08-05T07:34:28.708Z,101697.75
2022-08-05T07:38:33.757Z,101695.47
2022-08-05T07:42:36.997Z,101701.16
2022-08-05T07:46:38.698Z,101703.84
2022-08-05T07:50:40.615Z,101713.41
2022-08-05T07:54:49.092Z,101722.31
2022-08-05T07:58:57.488Z,101734.56
2022-08-05T08:03:14.807Z,101738.72
2022-08-05T08:07:22.849Z,101753.91
2022-08-05T08:11:27.713Z,101759.50
2022-08-05T08:16:35.233Z,101759.41
2022-08-05T08:20:21.994Z,101757.25
2022-08-05T08:24:51.146Z,101763.44
2022-08-05T08:28:59.240Z,101770.94
2022-08-05T08:33:13.860Z,101766.59
2022-08-05T08:37:21.077Z,101769.06
2022-08-05T08:41:50.633Z,101779.06
2022-08-05T08:45:55.711Z,101785.09
2022-08-05T08:50:07.632Z,101795.09
2022-08-05T08:54:21.053Z,101796.97
2022-08-05T08:58:43.910Z,101801.34
2022-08-05T09:02:46.552Z,101815.53
2022-08-05T09:06:49.903Z,101820.13
2022-08-05T09:10:51.927Z,101815.94
2022-08-05T09:15:01.128Z,101824.72
2022-08-05T09:19:08.953Z,101823.91
2022-08-05T09:23:19.626Z,101820.03
2022-08-05T09:28:05.906Z,101831.09
2022-08-05T09:32:41.971Z,101840.75
2022-08-05T09:36:55.823Z,101841.16
2022-08-05T09:41:10.110Z,101843.03
2022-08-05T09:45:17.426Z,101853.66
2022-08-05T09:49:54.555Z,101858.22
2022-08-05T09:53:59.302Z,101866.31
2022-08-05T09:58:13.566Z,101870.69
2022-08-05T10:02:30.963Z,101880.88
2022-08-05T10:06:34.131Z,101881.09
2022-08-05T10:10:48.164Z,101881.88
2022-08-05T10:14:54.327Z,101880.22
2022-08-05T10:18:56.752Z,101882.50
2022-08-05T10:22:59.738Z,101899.41
2022-08-05T10:27:01.688Z,101893.59
2022-08-05T10:32:53.995Z,101886.94
2022-08-05T10:35:33.782Z,101899.69
2022-08-05T10:40:03.768Z,101901.56
2022-08-05T10:44:11.494Z,101897.75
2022-08-05T10:48:36.235Z,101902.56
2022-08-05T10:52:58.555Z,101908.59
2022-08-05T10:57:00.571Z,101915.72
2022-08-05T11:01:07.225Z,101923.44
2022-08-05T11:05:10.592Z,101923.09
2022-08-05T11:09:16.768Z,101928.34
2022-08-05T11:13:40.078Z,101937.19
2022-08-05T11:18:30.259Z,101938.97
2022-08-05T11:22:44.786Z,101947.81
2022-08-05T11:27:51.277Z,101949.75
2022-08-05T11:32:27.401Z,101950.09
2022-08-05T11:36:47.267Z,101963.13
2022-08-05T11:41:35.556Z,101967.53
2022-08-05T11:46:14.704Z,101972.31
2022-08-05T11:49:51.171Z,101979.00
2022-08-05T11:53:54.154Z,101979.00
2022-08-05T11:58:10.423Z,101980.69
2022-08-05T12:02:29.799Z,101982.16
2022-08-05T12:06:35.755Z,101982.78
2022-08-05T12:10:45.385Z,101990.31
2022-08-05T12:14:48.002Z,101995.97
2022-08-05T12:18:53.004Z,102008.25
2022-08-05T12:23:10.809Z,101999.03
2022-08-05T12:27:25.422Z,102007.56
2022-08-05T12:31:33.649Z,102009.09
2022-08-05T12:35:48.118Z,102013.06
2022-08-05T12:39:52.251Z,102023.69
2022-08-05T12:43:58.761Z,102028.03
2022-08-05T12:48:26.818Z,102038.59
2022-08-05T12:52:33.960Z,102038.06
2022-08-05T12:56:43.181Z,102026.31
2022-08-05T13:02:03.367Z,102038.97
2022-08-05T13:05:11.109Z,102050.00
2022-08-05T13:09:28.396Z,102044.28
2022-08-05T13:14:04.875Z,102051.84
2022-08-05T13:17:55.842Z,102052.28
2022-08-05T13:22:01.034Z,102053.53
2022-08-05T13:26:05.736Z,102053.94
2022-08-05T13:30:34.415Z,102070.22
2022-08-05T13:34:32.922Z,102072.06
2022-08-05T13:38:36.283Z,102086.91
2022-08-05T13:42:40.806Z,102088.50
2022-08-05T13:47:04.782Z,102090.31
2022-08-05T13:51:09.536Z,102089.66
2022-08-05T13:55:11.297Z,102096.16
2022-08-05T13:59:32.932Z,102100.34
2022-08-05T14:03:34.672Z,102102.66
2022-08-05T14:08:00.389Z,102112.78
2022-08-05T14:12:18.089Z,102126.63
2022-08-05T14:16:27.928Z,102129.94
2022-08-05T14:20:30.627Z,102136.16
2022-08-05T14:24:32.256Z,102128.56
2022-08-05T14:28:34.244Z,102141.91
2022-08-05T14:32:37.117Z,102150.25
2022-08-05T14:36:40.402Z,102157.69
2022-08-05T14:40:41.995Z,102160.59
2022-08-05T14:44:45.874Z,102152.34
2022-08-05T14:48:49.200Z,102155.13
2022-08-05T14:52:57.562Z,102169.41
2022-08-05T14:57:00.553Z,102169.78
2022-08-05T15:01:16.072Z,102174.78
2022-08-05T15:05:18.458Z,102177.63
2022-08-05T15:09:54.190Z,102173.75
2022-08-05T15:13:45.856Z,102190.94
2022-08-05T15:17:52.022Z,102183.00
2022-08-05T15:21:59.945Z,102185.00
2022-08-05T15:26:03.255Z,102188.88
2022-08-05T15:30:05.872Z,102195.66
2022-08-05T15:34:18.674Z,102182.63
2022-08-05T15:38:35.528Z,102194.06
2022-08-05T15:42:53.727Z,102192.38
2022-08-05T15:46:56.598Z,102185.53
2022-08-05T15:51:01.543Z,102189.72
2022-08-05T15:55:10.279Z,102202.19
2022-08-05T15:59:21.984Z,102195.66
2022-08-05T16:03:24.148Z,102204.81
2022-08-05T16:07:25.770Z,102210.50
2022-08-05T16:11:42.623Z,102218.63
2022-08-05T16:15:45.219Z,102222.28
2022-08-05T16:20:04.926Z,102226.53
2022-08-05T16:24:12.988Z,102226.72
2022-08-05T16:28:32.315Z,102216.34
2022-08-05T16:32:34.042Z,102223.34
2022-08-05T16:36:36.241Z,102233.06
2022-08-05T16:40:48.127Z,102228.41
2022-08-05T16:44:57.022Z,102234.28
2022-08-05T16:48:59.096Z,102237.84
2022-08-05T16:53:01.592Z,102240.38
2022-08-05T16:57:22.004Z,102246.53
2022-08-05T17:01:24.564Z,102246.19
2022-08-05T17:05:26.331Z,102264.09
2022-08-05T17:09:30.295Z,102240.75
2022-08-05T17:13:42.170Z,102256.06
2022-08-05T17:17:44.356Z,102257.16
2022-08-05T17:21:51.521Z,102260.72
2022-08-05T17:25:53.329Z,102256.44
2022-08-05T17:30:00.582Z,102263.38
2022-08-05T17:34:03.907Z,102264.66
2022-08-05T17:38:09.824Z,102274.75
2022-08-05T17:42:19.842Z,102267.97
2022-08-05T17:46:23.687Z,102270.09
2022-08-05T17:50:29.954Z,102269.16
2022-08-05T17:54:33.883Z,102275.28
2022-08-05T17:58:37.749Z,102270.78
2022-08-05T18:02:39.470Z,102273.50
2022-08-05T18:06:41.094Z,102287.22
2022-08-05T18:10:47.493Z,102287.72
2022-08-05T18:14:51.375Z,102293.88
2022-08-05T18:18:53.100Z,102294.72
2022-08-05T18:22:57.585Z,102298.16
2022-08-05T18:26:59.374Z,102299.41
2022-08-05T18:31:01.040Z,102305.06
2022-08-05T18:35:02.674Z,102306.13
2022-08-05T18:39:09.869Z,102321.34
2022-08-05T18:43:31.594Z,102319.03
2022-08-05T18:47:39.855Z,102324.31
2022-08-05T18:52:04.279Z,102322.13
2022-08-05T18:56:11.611Z,102322.84
2022-08-05T19:00:20.262Z,102326.06
2022-08-05T19:04:24.043Z,102333.00
2022-08-05T19:08:30.520Z,102332.00
2022-08-05T19:12:33.734Z,102339.31
2022-08-05T19:16:47.190Z,102335.09
2022-08-05T19:20:52.312Z,102333.75
2022-08-05T19:24:56.605Z,102342.38
2022-08-05T19:28:58.451Z,102353.34
2022-08-05T19:33:00.055Z,102355.03
2022-08-05T19:37:05.945Z,102360.13
2022-08-05T19:41:08.942Z,102361.47
2022-08-05T19:45:14.590Z,102362.84
2022-08-05T19:49:17.086Z,102375.66
2022-08-05T19:54:04.808Z,102385.78
2022-08-05T19:57:47.463Z,102385.44
2022-08-05T20:02:03.065Z,102393.03
2022-08-05T20:06:15.705Z,102388.44
2022-08-05T20:10:19.394Z,102397.88
2022-08-05T20:14:24.143Z,102403.97
2022-08-05T20:18:33.094Z,102403.97
2022-08-05T20:22:37.037Z,102419.47
2022-08-05T20:26:43.111Z,102421.63
2022-08-05T20:30:44.726Z,102417.94
2022-08-05T20:34:46.703Z,102424.34
2022-08-05T20:38:54.598Z,102429.41
2022-08-05T20:43:00.005Z,102427.16
2022-08-05T20:47:06.759Z,102422.13
2022-08-05T20:51:09.449Z,102424.97
2022-08-05T20:55:54.700Z,102429.84
2022-08-05T21:00:10.670Z,102428.50
2022-08-05T21:03:54.942Z,102428.81
2022-08-05T21:07:56.735Z,102433.88
2022-08-05T21:12:10.242Z,102430.84
2022-08-05T21:16:14.552Z,102436.56
2022-08-05T21:20:32.955Z,102442.97
2022-08-05T21:24:35.488Z,102445.97
2022-08-05T21:28:39.112Z,102447.44
2022-08-05T21:32:40.971Z,102450.47
2022-08-05T21:36:46.613Z,102447.25
2022-08-05T21:40:50.968Z,102444.91
2022-08-05T21:44:52.614Z,102456.00
2022-08-05T21:48:56.664Z,102454.47
2022-08-05T21:53:04.640Z,102461.00
2022-08-05T21:57:33.719Z,102460.16
2022-08-05T22:01:35.675Z,102456.28
2022-08-05T22:05:48.481Z,102457.09
2022-08-05T22:09:50.944Z,102461.94
2022-08-05T22:14:06.532Z,102460.09
2022-08-05T22:18:14.737Z,102463.63
2022-08-05T22:22:16.542Z,102459.38
2022-08-05T22:26:49.781Z,102465.53
2022-08-05T22:30:55.914Z,102465.19
2022-08-05T22:34:58.848Z,102474.91
2022-08-05T22:39:09.231Z,102473.69
2022-08-05T22:43:11.385Z,102468.97
2022-08-05T22:47:15.098Z,102467.81
2022-08-05T22:52:04.701Z,102483.16
2022-08-05T22:55:57.257Z,102487.66
2022-08-05T23:00:02.792Z,102493.38
2022-08-05T23:04:04.838Z,102496.88
2022-08-05T23:08:09.043Z,102506.03
2022-08-05T23:12:13.113Z,102511.53
2022-08-05T23:16:14.814Z,102504.66
2022-08-05T23:20:37.107Z,102508.25
2022-08-05T23:24:39.529Z,102516.97
2022-08-05T23:28:50.036Z,102515.88
2022-08-05T23:32:52.022Z,102525.78
2022-08-05T23:36:53.812Z,102531.31
2022-08-05T23:40:56.603Z,102529.09
2022-08-05T23:44:58.294Z,102532.63
2022-08-05T23:49:15.618Z,102536.88
2022-08-05T23:53:22.960Z,102543.78
2022-08-05T23:57:28.354Z,102541.09
